createdAt,value
2022-12-11T00:04:53.000Z,1.47
2022-12-11T00:09:53.000Z,1.48
2022-12-11T00:14:53.000Z,1.41
2022-12-11T00:19:53.000Z,1.38
2022-12-11T00:24:53.000Z,1.35
2022-12-11T00:29:53.000Z,1.38
2022-12-11T00:34:53.000Z,1.35
2022-12-11T00:39:53.000Z,1.34
2022-12-11T00:44:53.000Z,1.31
2022-12-11T00:49:53.000Z,1.28
2022-12-11T00:54:53.000Z,1.26
2022-12-11T01:00:08.000Z,1.21
2022-12-11T01:04:53.000Z,1.22
2022-12-11T01:09:53.000Z,1.20
2022-12-11T01:14:53.000Z,1.14
2022-12-11T01:19:53.000Z,1.09
2022-12-11T01:24:53.000Z,1.03
2022-12-11T01:29:53.000Z,0.94
2022-12-11T01:34:53.000Z,0.88
2022-12-11T01:39:53.000Z,0.74
2022-12-11T01:44:53.000Z,0.62
2022-12-11T01:50:08.000Z,0.46
2022-12-11T01:55:08.000Z,0.37
2022-12-11T01:59:53.000Z,0.27
2022-12-11T02:04:53.000Z,0.18
2022-12-11T02:09:53.000Z,0.02
2022-12-11T02:15:08.000Z,-0.12
2022-12-11T02:19:53.000Z,-0.15
2022-12-11T02:24:53.000Z,-0.23
2022-12-11T02:29:53.000Z,-0.38
2022-12-11T02:34:53.000Z,-0.41
2022-12-11T02:39:53.000Z,-0.50
2022-12-11T02:44:53.000Z,-0.59
2022-12-11T02:49:53.000Z,-0.68
2022-12-11T02:54:53.000Z,-0.68
2022-12-11T02:59:53.000Z,-0.70
2022-12-11T03:04:53.000Z,-0.77
2022-12-11T03:09:53.000Z,-0.87
2022-12-11T03:14:53.000Z,-0.95
2022-12-11T03:19:53.000Z,-0.98
2022-12-11T03:24:53.000Z,-1.01
2022-12-11T03:29:53.000Z,-1.02
2022-12-11T03:34:53.000Z,-1.05
2022-12-11T03:39:53.000Z,-1.17
2022-12-11T03:44:53.000Z,-1.24
2022-12-11T03:49:53.000Z,-1.30
2022-12-11T03:54:53.000Z,-1.36
2022-12-11T03:59:53.000Z,-1.43
2022-12-11T04:04:53.000Z,-1.52
2022-12-11T04:09:53.000Z,-1.57
2022-12-11T04:14:53.000Z,-1.61
2022-12-11T04:19:53.000Z,-1.65
2022-12-11T04:24:53.000Z,-1.63
2022-12-11T04:29:53.000Z,-1.53
2022-12-11T04:34:53.000Z,-1.46
2022-12-11T04:39:53.000Z,-1.33
2022-12-11T04:44:53.000Z,-1.27
2022-12-11T04:49:53.000Z,-1.24
2022-12-11T04:54:53.000Z,-1.28
2022-12-11T04:59:53.000Z,-1.35
2022-12-11T05:04:53.000Z,-1.42
2022-12-11T05:09:53.000Z,-1.53
2022-12-11T05:14:53.000Z,-1.63
2022-12-11T05:19:53.000Z,-1.83
2022-12-11T05:24:53.000Z,-1.92
2022-12-11T05:29:53.000Z,-2.07
2022-12-11T05:34:53.000Z,-2.03
2022-12-11T05:39:53.000Z,-2.07
2022-12-11T05:44:53.000Z,-2.07
2022-12-11T05:49:53.000Z,-2.10
2022-12-11T05:54:53.000Z,-2.20
2022-12-11T05:59:53.000Z,-2.33
2022-12-11T06:04:53.000Z,-2.42
2022-12-11T06:09:53.000Z,-2.36
2022-12-11T06:14:53.000Z,-2.34
2022-12-11T06:19:53.000Z,-2.30
2022-12-11T06:24:53.000Z,-2.33
2022-12-11T06:29:53.000Z,-2.36
2022-12-11T06:34:53.000Z,-2.39
2022-12-11T06:39:53.000Z,-2.47
2022-12-11T06:44:53.000Z,-2.50
2022-12-11T06:49:53.000Z,-2.56
2022-12-11T06:54:53.000Z,-2.56
2022-12-11T06:59:53.000Z,-2.64
2022-12-11T07:04:53.000Z,-2.66
2022-12-11T07:09:53.000Z,-2.64
2022-12-11T07:14:53.000Z,-2.63
2022-12-11T07:19:53.000Z,-2.67
2022-12-11T07:24:53.000Z,-2.73
2022-12-11T07:29:53.000Z,-2.73
2022-12-11T07:34:53.000Z,-2.68
2022-12-11T07:39:53.000Z,-2.62
2022-12-11T07:44:53.000Z,-2.58
2022-12-11T07:49:53.000Z,-2.61
2022-12-11T07:54:53.000Z,-2.67
2022-12-11T07:59:53.000Z,-2.72
2022-12-11T08:04:53.000Z,-2.82
2022-12-11T08:09:53.000Z,-2.90
2022-12-11T08:14:53.000Z,-2.94
2022-12-11T08:19:53.000Z,-2.98
2022-12-11T08:24:53.000Z,-2.94
2022-12-11T08:30:08.000Z,-2.96
2022-12-11T08:34:53.000Z,-2.92
2022-12-11T08:39:53.000Z,-2.90
2022-12-11T08:44:53.000Z,-2.83
2022-12-11T08:49:53.000Z,-2.78
2022-12-11T08:54:53.000Z,-2.74
2022-12-11T08:59:53.000Z,-2.63
2022-12-11T09:04:53.000Z,-2.50
2022-12-11T09:09:53.000Z,-2.30
2022-12-11T09:14:53.000Z,-2.10
2022-12-11T09:19:53.000Z,-2.07
2022-12-11T09:24:53.000Z,-1.87
2022-12-11T09:29:53.000Z,-1.84
2022-12-11T09:34:53.000Z,-1.52
2022-12-11T09:39:53.000Z,-1.41
2022-12-11T09:44:53.000Z,-1.42
2022-12-11T09:49:53.000Z,-1.15
2022-12-11T09:54:53.000Z,-1.08
2022-12-11T09:59:53.000Z,-1.12
2022-12-11T10:04:53.000Z,-1.14
2022-12-11T10:09:53.000Z,-1.06
2022-12-11T10:14:53.000Z,-0.96
2022-12-11T10:19:53.000Z,-0.87
2022-12-11T10:24:53.000Z,-0.82
2022-12-11T10:29:53.000Z,-0.76
2022-12-11T10:34:53.000Z,-0.68
2022-12-11T10:39:53.000Z,-0.52
2022-12-11T10:44:53.000Z,-0.49
2022-12-11T10:49:53.000Z,-0.46
2022-12-11T10:54:53.000Z,-0.44
2022-12-11T10:59:53.000Z,-0.40
2022-12-11T11:04:53.000Z,-0.36
2022-12-11T11:09:53.000Z,-0.30
2022-12-11T11:14:53.000Z,-0.30
2022-12-11T11:19:53.000Z,-0.24
2022-12-11T11:24:53.000Z,-0.25
2022-12-11T11:29:53.000Z,-0.34
2022-12-11T11:34:53.000Z,-0.37
2022-12-11T11:39:53.000Z,-0.46
2022-12-11T11:44:53.000Z,-0.42
2022-12-11T11:49:53.000Z,-0.41
2022-12-11T11:54:53.000Z,-0.45
2022-12-11T11:59:53.000Z,-0.44
2022-12-11T12:04:53.000Z,-0.43
2022-12-11T12:09:53.000Z,-0.43
2022-12-11T12:14:53.000Z,-0.37
2022-12-11T12:19:53.000Z,-0.29
2022-12-11T12:24:53.000Z,-0.23
2022-12-11T12:29:53.000Z,-0.17
2022-12-11T12:34:53.000Z,-0.08
2022-12-11T12:39:53.000Z,-0.00
2022-12-11T12:44:53.000Z,0.08
2022-12-11T12:49:53.000Z,0.12
2022-12-11T12:54:53.000Z,0.15
2022-12-11T12:59:53.000Z,0.20
2022-12-11T13:04:53.000Z,0.23
2022-12-11T13:09:53.000Z,0.23
2022-12-11T13:14:53.000Z,0.25
2022-12-11T13:19:53.000Z,0.31
2022-12-11T13:24:54.000Z,0.39
2022-12-11T13:29:53.000Z,0.36
2022-12-11T13:34:53.000Z,0.27
2022-12-11T13:39:53.000Z,0.05
2022-12-11T13:44:53.000Z,-0.01
2022-12-11T13:49:53.000Z,-0.08
2022-12-11T13:54:53.000Z,-0.12
2022-12-11T13:59:53.000Z,-0.19
2022-12-11T14:04:53.000Z,-0.21
2022-12-11T14:09:53.000Z,-0.26
2022-12-11T14:14:53.000Z,-0.42
2022-12-11T14:19:53.000Z,-0.41
2022-12-11T14:24:53.000Z,-0.44
2022-12-11T14:29:53.000Z,-0.51
2022-12-11T14:34:53.000Z,-0.58
2022-12-11T14:39:53.000Z,-0.72
2022-12-11T14:45:00.000Z,-0.77
2022-12-11T14:50:00.000Z,-0.85
2022-12-11T14:55:00.000Z,-0.90
2022-12-11T15:00:00.000Z,-0.99
2022-12-11T15:05:00.000Z,-1.06
2022-12-11T15:10:00.000Z,-1.05
2022-12-11T15:15:00.000Z,-1.11
2022-12-11T15:20:00.000Z,-1.17
2022-12-11T15:25:00.000Z,-1.25
2022-12-11T15:30:00.000Z,-1.27
2022-12-11T15:35:00.000Z,-1.39
2022-12-11T15:40:00.000Z,-1.49
2022-12-11T15:45:00.000Z,-1.49
2022-12-11T15:50:00.000Z,-1.55
2022-12-11T15:55:00.000Z,-1.61
2022-12-11T16:00:00.000Z,-1.63
2022-12-11T16:05:01.000Z,-1.68
2022-12-11T16:10:00.000Z,-1.84
2022-12-11T16:15:01.000Z,-1.92
2022-12-11T16:20:01.000Z,-2.02
2022-12-11T16:25:00.000Z,-2.10
2022-12-11T16:30:00.000Z,-2.26
2022-12-11T16:35:00.000Z,-2.24
2022-12-11T16:40:00.000Z,-2.35
2022-12-11T16:45:00.000Z,-2.46
2022-12-11T16:50:00.000Z,-2.49
2022-12-11T16:55:01.000Z,-2.52
2022-12-11T17:00:00.000Z,-2.42
2022-12-11T17:05:00.000Z,-2.29
2022-12-11T17:10:00.000Z,-2.15
2022-12-11T17:15:00.000Z,-2.07
2022-12-11T17:20:00.000Z,-1.97
2022-12-11T17:25:00.000Z,-2.09
2022-12-11T17:30:00.000Z,-1.84
2022-12-11T17:35:01.000Z,-1.76
2022-12-11T17:40:00.000Z,-1.78
2022-12-11T17:45:00.000Z,-1.83
2022-12-11T17:50:00.000Z,-1.86
2022-12-11T17:55:00.000Z,-1.92
2022-12-11T18:00:00.000Z,-1.98
2022-12-11T18:05:00.000Z,-1.98
2022-12-11T18:10:00.000Z,-1.95
2022-12-11T18:15:00.000Z,-1.98
2022-12-11T18:20:00.000Z,-2.07
2022-12-11T18:25:00.000Z,-2.28
2022-12-11T18:30:00.000Z,-2.19
2022-12-11T18:35:00.000Z,-2.28
2022-12-11T18:40:00.000Z,-2.33
2022-12-11T18:45:00.000Z,-2.45
2022-12-11T18:50:00.000Z,-2.51
2022-12-11T18:55:00.000Z,-2.47
2022-12-11T19:00:00.000Z,-2.52
2022-12-11T19:05:00.000Z,-2.58
2022-12-11T19:10:01.000Z,-2.57
2022-12-11T19:15:00.000Z,-2.51
2022-12-11T19:20:00.000Z,-2.50
2022-12-11T19:25:01.000Z,-2.51
2022-12-11T19:30:00.000Z,-2.50
2022-12-11T19:35:00.000Z,-2.44
2022-12-11T19:40:00.000Z,-2.29
2022-12-11T19:45:00.000Z,-2.22
2022-12-11T19:50:01.000Z,-2.18
2022-12-11T19:55:00.000Z,-2.20
2022-12-11T20:00:00.000Z,-2.21
2022-12-11T20:05:01.000Z,-2.18
2022-12-11T20:10:00.000Z,-2.16
2022-12-11T20:15:01.000Z,-2.16
2022-12-11T20:20:00.000Z,-2.10
2022-12-11T20:25:00.000Z,-2.09
2022-12-11T20:30:00.000Z,-2.10
2022-12-11T20:35:00.000Z,-2.13
2022-12-11T20:40:01.000Z,-2.09
2022-12-11T20:45:00.000Z,-2.09
2022-12-11T20:50:01.000Z,-2.07
2022-12-11T20:55:00.000Z,-2.01
2022-12-11T21:00:00.000Z,-2.03
2022-12-11T21:05:00.000Z,-1.93
2022-12-11T21:10:00.000Z,-1.84
2022-12-11T21:15:01.000Z,-1.75
2022-12-11T21:20:01.000Z,-1.76
2022-12-11T21:25:00.000Z,-1.70
2022-12-11T21:30:00.000Z,-1.62
2022-12-11T21:35:00.000Z,-1.53
2022-12-11T21:40:00.000Z,-1.49
2022-12-11T21:45:01.000Z,-1.46
2022-12-11T21:50:00.000Z,-1.40
2022-12-11T21:55:00.000Z,-1.44
2022-12-11T22:00:00.000Z,-1.43
2022-12-11T22:05:00.000Z,-1.39
2022-12-11T22:10:00.000Z,-1.36
2022-12-11T22:15:01.000Z,-1.30
2022-12-11T22:20:00.000Z,-1.32
2022-12-11T22:25:01.000Z,-1.27
2022-12-11T22:30:00.000Z,-1.27
2022-12-11T22:35:00.000Z,-1.21
2022-12-11T22:40:00.000Z,-1.20
2022-12-11T22:45:01.000Z,-1.21
2022-12-11T22:50:00.000Z,-1.19
2022-12-11T22:55:00.000Z,-1.19
2022-12-11T23:00:01.000Z,-1.20
2022-12-11T23:05:01.000Z,-1.25
2022-12-11T23:10:01.000Z,-1.25
2022-12-11T23:15:01.000Z,-1.27
2022-12-11T23:20:01.000Z,-1.26
2022-12-11T23:25:01.000Z,-1.29
2022-12-11T23:30:01.000Z,-1.31
2022-12-11T23:35:01.000Z,-1.42
2022-12-11T23:40:01.000Z,-1.52
2022-12-11T23:45:01.000Z,-1.61
2022-12-11T23:50:01.000Z,-1.69
2022-12-11T23:55:01.000Z,-1.82
